sensor_id;sensor_type;location;lat;lon;timestamp;temperature;humidity
23267;DHT22;11802;53.160;8.214;2023-11-18T00:01:44;2.30;99.90
23267;DHT22;11802;53.160;8.214;2023-11-18T00:04:10;2.30;99.90
23267;DHT22;11802;53.160;8.214;2023-11-18T00:06:41;2.30;99.90
23267;DHT22;11802;53.160;8.214;2023-11-18T00:09:12;2.20;99.90
23267;DHT22;11802;53.160;8.214;2023-11-18T00:11:39;2.20;99.90
23267;DHT22;11802;53.160;8.214;2023-11-18T00:14:04;2.30;99.90
23267;DHT22;11802;53.160;8.214;2023-11-18T00:16:30;2.30;99.90
23267;DHT22;11802;53.160;8.214;2023-11-18T00:18:55;2.30;99.90
23267;DHT22;11802;53.160;8.214;2023-11-18T00:21:21;2.40;99.90
23267;DHT22;11802;53.160;8.214;2023-11-18T00:23:46;2.50;99.90
23267;DHT22;11802;53.160;8.214;2023-11-18T00:26:13;2.60;99.90
23267;DHT22;11802;53.160;8.214;2023-11-18T00:28:40;2.60;99.90
23267;DHT22;11802;53.160;8.214;2023-11-18T00:31:06;2.70;99.90
23267;DHT22;11802;53.160;8.214;2023-11-18T00:33:31;2.80;99.90
23267;DHT22;11802;53.160;8.214;2023-11-18T00:35:57;2.90;99.90
23267;DHT22;11802;53.160;8.214;2023-11-18T00:38:25;3.00;99.90
23267;DHT22;11802;53.160;8.214;2023-11-18T00:40:51;3.10;99.90
23267;DHT22;11802;53.160;8.214;2023-11-18T00:43:18;3.10;99.90
23267;DHT22;11802;53.160;8.214;2023-11-18T00:45:43;3.20;99.90
23267;DHT22;11802;53.160;8.214;2023-11-18T00:48:09;3.20;99.90
23267;DHT22;11802;53.160;8.214;2023-11-18T00:50:36;3.30;99.90
23267;DHT22;11802;53.160;8.214;2023-11-18T00:53:01;3.30;99.90
23267;DHT22;11802;53.160;8.214;2023-11-18T00:55:27;3.30;99.90
23267;DHT22;11802;53.160;8.214;2023-11-18T00:57:52;3.40;99.90
23267;DHT22;11802;53.160;8.214;2023-11-18T01:00:18;3.40;99.90
23267;DHT22;11802;53.160;8.214;2023-11-18T01:02:48;3.40;99.90
23267;DHT22;11802;53.160;8.214;2023-11-18T01:05:15;3.50;99.90
23267;DHT22;11802;53.160;8.214;2023-11-18T01:07:41;3.50;99.90
23267;DHT22;11802;53.160;8.214;2023-11-18T01:10:07;3.50;99.90
23267;DHT22;11802;53.160;8.214;2023-11-18T01:12:33;3.60;99.90
23267;DHT22;11802;53.160;8.214;2023-11-18T01:14:59;3.60;99.90
23267;DHT22;11802;53.160;8.214;2023-11-18T01:17:24;3.60;99.90
23267;DHT22;11802;53.160;8.214;2023-11-18T01:19:50;3.70;99.90
23267;DHT22;11802;53.160;8.214;2023-11-18T01:22:15;3.70;99.90
23267;DHT22;11802;53.160;8.214;2023-11-18T01:24:43;3.70;99.90
23267;DHT22;11802;53.160;8.214;2023-11-18T01:27:09;3.70;99.90
23267;DHT22;11802;53.160;8.214;2023-11-18T01:29:35;3.70;99.90
23267;DHT22;11802;53.160;8.214;2023-11-18T01:32:01;3.80;99.90
23267;DHT22;11802;53.160;8.214;2023-11-18T01:34:34;3.80;99.90
23267;DHT22;11802;53.160;8.214;2023-11-18T01:37:00;3.80;99.90
23267;DHT22;11802;53.160;8.214;2023-11-18T01:39:25;3.80;99.90
23267;DHT22;11802;53.160;8.214;2023-11-18T01:41:52;3.80;99.90
23267;DHT22;11802;53.160;8.214;2023-11-18T01:44:17;3.80;99.90
23267;DHT22;11802;53.160;8.214;2023-11-18T01:46:45;3.90;99.90
23267;DHT22;11802;53.160;8.214;2023-11-18T01:49:12;3.90;99.90
23267;DHT22;11802;53.160;8.214;2023-11-18T01:51:41;3.90;99.90
23267;DHT22;11802;53.160;8.214;2023-11-18T01:54:07;4.00;99.90
23267;DHT22;11802;53.160;8.214;2023-11-18T01:56:34;4.00;99.90
23267;DHT22;11802;53.160;8.214;2023-11-18T01:59:00;4.00;99.90
23267;DHT22;11802;53.160;8.214;2023-11-18T02:01:28;4.00;99.90
23267;DHT22;11802;53.160;8.214;2023-11-18T02:03:54;3.90;99.90
23267;DHT22;11802;53.160;8.214;2023-11-18T02:06:20;3.90;99.90
23267;DHT22;11802;53.160;8.214;2023-11-18T02:08:46;4.00;99.90
23267;DHT22;11802;53.160;8.214;2023-11-18T02:14:14;4.00;99.90
23267;DHT22;11802;53.160;8.214;2023-11-18T02:16:42;4.00;99.90
23267;DHT22;11802;53.160;8.214;2023-11-18T02:19:20;4.00;99.90
23267;DHT22;11802;53.160;8.214;2023-11-18T02:21:48;4.00;99.90
23267;DHT22;11802;53.160;8.214;2023-11-18T02:24:33;3.90;99.90
23267;DHT22;11802;53.160;8.214;2023-11-18T02:27:03;3.80;99.90
23267;DHT22;11802;53.160;8.214;2023-11-18T02:29:35;3.70;99.90
23267;DHT22;11802;53.160;8.214;2023-11-18T02:32:08;3.80;99.90
23267;DHT22;11802;53.160;8.214;2023-11-18T02:34:40;3.70;99.90
23267;DHT22;11802;53.160;8.214;2023-11-18T02:37:08;3.80;99.90
23267;DHT22;11802;53.160;8.214;2023-11-18T02:39:39;3.90;99.90
23267;DHT22;11802;53.160;8.214;2023-11-18T02:42:07;3.90;99.90
23267;DHT22;11802;53.160;8.214;2023-11-18T02:44:36;3.90;99.90
23267;DHT22;11802;53.160;8.214;2023-11-18T02:47:03;4.00;99.90
23267;DHT22;11802;53.160;8.214;2023-11-18T02:49:30;4.00;99.90
23267;DHT22;11802;53.160;8.214;2023-11-18T02:51:56;3.90;99.90
23267;DHT22;11802;53.160;8.214;2023-11-18T02:54:23;4.00;99.90
23267;DHT22;11802;53.160;8.214;2023-11-18T02:56:49;4.00;99.90
23267;DHT22;11802;53.160;8.214;2023-11-18T02:59:16;4.00;99.90
23267;DHT22;11802;53.160;8.214;2023-11-18T03:01:41;4.10;99.90
23267;DHT22;11802;53.160;8.214;2023-11-18T03:04:07;4.10;99.90
23267;DHT22;11802;53.160;8.214;2023-11-18T03:06:34;4.10;99.90
23267;DHT22;11802;53.160;8.214;2023-11-18T03:09:01;4.00;99.90
23267;DHT22;11802;53.160;8.214;2023-11-18T03:11:28;4.00;99.90
23267;DHT22;11802;53.160;8.214;2023-11-18T03:13:56;4.00;99.90
23267;DHT22;11802;53.160;8.214;2023-11-18T03:16:22;4.00;99.90
23267;DHT22;11802;53.160;8.214;2023-11-18T03:18:50;4.10;99.90
23267;DHT22;11802;53.160;8.214;2023-11-18T03:21:15;4.10;99.90
23267;DHT22;11802;53.160;8.214;2023-11-18T03:23:41;4.10;99.90
23267;DHT22;11802;53.160;8.214;2023-11-18T03:26:10;4.10;99.90
23267;DHT22;11802;53.160;8.214;2023-11-18T03:28:36;4.20;99.90
23267;DHT22;11802;53.160;8.214;2023-11-18T03:31:05;4.20;99.90
23267;DHT22;11802;53.160;8.214;2023-11-18T03:33:33;4.20;99.90
23267;DHT22;11802;53.160;8.214;2023-11-18T03:35:58;4.20;99.90
23267;DHT22;11802;53.160;8.214;2023-11-18T03:38:24;4.20;99.90
23267;DHT22;11802;53.160;8.214;2023-11-18T03:40:50;4.20;99.90
23267;DHT22;11802;53.160;8.214;2023-11-18T03:43:17;4.20;99.90
23267;DHT22;11802;53.160;8.214;2023-11-18T03:45:43;4.20;99.90
23267;DHT22;11802;53.160;8.214;2023-11-18T03:48:12;4.30;99.90
23267;DHT22;11802;53.160;8.214;2023-11-18T03:50:41;4.30;99.90
23267;DHT22;11802;53.160;8.214;2023-11-18T03:53:06;4.30;99.90
23267;DHT22;11802;53.160;8.214;2023-11-18T03:55:32;4.30;99.90
23267;DHT22;11802;53.160;8.214;2023-11-18T03:57:59;4.30;99.90
23267;DHT22;11802;53.160;8.214;2023-11-18T04:00:24;4.30;99.90
23267;DHT22;11802;53.160;8.214;2023-11-18T04:02:55;4.30;99.90
23267;DHT22;11802;53.160;8.214;2023-11-18T04:05:21;4.30;99.90
23267;DHT22;11802;53.160;8.214;2023-11-18T04:07:47;4.30;99.90
23267;DHT22;11802;53.160;8.214;2023-11-18T04:10:13;4.30;99.90
23267;DHT22;11802;53.160;8.214;2023-11-18T04:12:38;4.20;99.90
23267;DHT22;11802;53.160;8.214;2023-11-18T04:15:06;4.20;99.90
23267;DHT22;11802;53.160;8.214;2023-11-18T04:17:32;4.20;99.90
23267;DHT22;11802;53.160;8.214;2023-11-18T04:19:57;4.10;99.90
23267;DHT22;11802;53.160;8.214;2023-11-18T04:22:23;4.10;99.90
23267;DHT22;11802;53.160;8.214;2023-11-18T04:24:49;4.10;99.90
23267;DHT22;11802;53.160;8.214;2023-11-18T04:27:15;4.10;99.90
23267;DHT22;11802;53.160;8.214;2023-11-18T04:29:41;4.00;99.90
23267;DHT22;11802;53.160;8.214;2023-11-18T04:32:07;4.00;99.90
23267;DHT22;11802;53.160;8.214;2023-11-18T04:34:36;4.00;99.90
23267;DHT22;11802;53.160;8.214;2023-11-18T04:37:03;4.10;99.90
23267;DHT22;11802;53.160;8.214;2023-11-18T04:39:31;4.10;99.90
23267;DHT22;11802;53.160;8.214;2023-11-18T04:41:57;4.10;99.90
23267;DHT22;11802;53.160;8.214;2023-11-18T04:44:22;4.00;99.90
23267;DHT22;11802;53.160;8.214;2023-11-18T04:46:48;4.00;99.90
23267;DHT22;11802;53.160;8.214;2023-11-18T04:49:13;3.90;99.90
23267;DHT22;11802;53.160;8.214;2023-11-18T04:51:39;3.90;99.90
23267;DHT22;11802;53.160;8.214;2023-11-18T04:54:05;3.90;99.90
23267;DHT22;11802;53.160;8.214;2023-11-18T04:56:33;3.90;99.90
23267;DHT22;11802;53.160;8.214;2023-11-18T04:59:01;3.90;99.90
23267;DHT22;11802;53.160;8.214;2023-11-18T05:01:26;3.80;99.90
23267;DHT22;11802;53.160;8.214;2023-11-18T05:03:52;3.80;99.90
23267;DHT22;11802;53.160;8.214;2023-11-18T05:06:17;3.80;99.90
23267;DHT22;11802;53.160;8.214;2023-11-18T05:08:45;3.80;99.90
23267;DHT22;11802;53.160;8.214;2023-11-18T05:11:10;3.80;99.90
23267;DHT22;11802;53.160;8.214;2023-11-18T05:13:38;3.70;99.90
23267;DHT22;11802;53.160;8.214;2023-11-18T05:16:05;3.70;99.90
23267;DHT22;11802;53.160;8.214;2023-11-18T05:18:31;3.70;99.90
23267;DHT22;11802;53.160;8.214;2023-11-18T05:21:01;3.70;99.90
23267;DHT22;11802;53.160;8.214;2023-11-18T05:23:28;3.70;99.90
23267;DHT22;11802;53.160;8.214;2023-11-18T05:25:54;3.70;99.90
23267;DHT22;11802;53.160;8.214;2023-11-18T05:28:21;3.70;99.90
23267;DHT22;11802;53.160;8.214;2023-11-18T05:30:47;3.70;99.90
23267;DHT22;11802;53.160;8.214;2023-11-18T05:33:13;3.80;99.90
23267;DHT22;11802;53.160;8.214;2023-11-18T05:35:43;3.70;99.90
23267;DHT22;11802;53.160;8.214;2023-11-18T05:38:17;3.80;99.90
23267;DHT22;11802;53.160;8.214;2023-11-18T05:40:45;3.80;99.90
23267;DHT22;11802;53.160;8.214;2023-11-18T05:43:21;3.80;99.90
23267;DHT22;11802;53.160;8.214;2023-11-18T05:45:47;3.70;99.90
23267;DHT22;11802;53.160;8.214;2023-11-18T05:48:31;3.70;99.90
23267;DHT22;11802;53.160;8.214;2023-11-18T05:50:57;3.70;99.90
23267;DHT22;11802;53.160;8.214;2023-11-18T05:53:22;3.60;99.90
23267;DHT22;11802;53.160;8.214;2023-11-18T05:55:48;3.60;99.90
23267;DHT22;11802;53.160;8.214;2023-11-18T05:58:15;3.60;99.90
23267;DHT22;11802;53.160;8.214;2023-11-18T06:00:41;3.60;99.90
23267;DHT22;11802;53.160;8.214;2023-11-18T06:03:07;3.60;99.90
23267;DHT22;11802;53.160;8.214;2023-11-18T06:05:34;3.60;99.90
23267;DHT22;11802;53.160;8.214;2023-11-18T06:08:00;3.60;99.90
23267;DHT22;11802;53.160;8.214;2023-11-18T06:10:26;3.60;99.90
23267;DHT22;11802;53.160;8.214;2023-11-18T06:12:51;3.70;99.90
23267;DHT22;11802;53.160;8.214;2023-11-18T06:15:18;3.70;99.90
23267;DHT22;11802;53.160;8.214;2023-11-18T06:17:44;3.70;99.90
23267;DHT22;11802;53.160;8.214;2023-11-18T06:20:10;3.70;99.90
23267;DHT22;11802;53.160;8.214;2023-11-18T06:22:36;3.70;99.90
23267;DHT22;11802;53.160;8.214;2023-11-18T06:25:01;3.70;99.90
23267;DHT22;11802;53.160;8.214;2023-11-18T06:27:28;3.70;99.90
23267;DHT22;11802;53.160;8.214;2023-11-18T06:29:53;3.70;99.90
23267;DHT22;11802;53.160;8.214;2023-11-18T06:32:20;3.70;99.90
23267;DHT22;11802;53.160;8.214;2023-11-18T06:34:46;3.70;99.90
23267;DHT22;11802;53.160;8.214;2023-11-18T06:37:11;3.70;99.90
23267;DHT22;11802;53.160;8.214;2023-11-18T06:39:41;3.70;99.90
23267;DHT22;11802;53.160;8.214;2023-11-18T06:42:09;3.70;99.90
23267;DHT22;11802;53.160;8.214;2023-11-18T06:44:37;3.70;99.90
23267;DHT22;11802;53.160;8.214;2023-11-18T06:47:03;3.70;99.90
23267;DHT22;11802;53.160;8.214;2023-11-18T06:49:30;3.70;99.90
23267;DHT22;11802;53.160;8.214;2023-11-18T06:52:00;3.70;99.90
23267;DHT22;11802;53.160;8.214;2023-11-18T06:54:29;3.70;99.90
23267;DHT22;11802;53.160;8.214;2023-11-18T06:56:54;3.80;99.90
23267;DHT22;11802;53.160;8.214;2023-11-18T06:59:20;3.80;99.90
23267;DHT22;11802;53.160;8.214;2023-11-18T07:01:45;3.70;99.90
23267;DHT22;11802;53.160;8.214;2023-11-18T07:04:11;3.70;99.90
23267;DHT22;11802;53.160;8.214;2023-11-18T07:06:38;3.60;99.90
23267;DHT22;11802;53.160;8.214;2023-11-18T07:09:05;3.60;99.90
23267;DHT22;11802;53.160;8.214;2023-11-18T07:11:38;3.70;99.90
23267;DHT22;11802;53.160;8.214;2023-11-18T07:14:04;3.70;99.90
23267;DHT22;11802;53.160;8.214;2023-11-18T07:16:29;3.70;99.90
23267;DHT22;11802;53.160;8.214;2023-11-18T07:18:55;3.80;99.90
23267;DHT22;11802;53.160;8.214;2023-11-18T07:21:20;3.80;99.90
23267;DHT22;11802;53.160;8.214;2023-11-18T07:23:46;3.80;99.90
23267;DHT22;11802;53.160;8.214;2023-11-18T07:26:12;3.80;99.90
23267;DHT22;11802;53.160;8.214;2023-11-18T07:28:39;3.80;99.90
23267;DHT22;11802;53.160;8.214;2023-11-18T07:31:05;3.80;99.90
23267;DHT22;11802;53.160;8.214;2023-11-18T07:33:31;3.80;99.90
23267;DHT22;11802;53.160;8.214;2023-11-18T07:35:57;3.80;99.90
23267;DHT22;11802;53.160;8.214;2023-11-18T07:38:23;3.80;99.90
23267;DHT22;11802;53.160;8.214;2023-11-18T07:40:49;3.80;99.90
23267;DHT22;11802;53.160;8.214;2023-11-18T07:43:15;3.80;99.90
23267;DHT22;11802;53.160;8.214;2023-11-18T07:45:41;3.90;99.90
23267;DHT22;11802;53.160;8.214;2023-11-18T07:48:12;3.90;99.90
23267;DHT22;11802;53.160;8.214;2023-11-18T07:50:42;3.90;99.90
23267;DHT22;11802;53.160;8.214;2023-11-18T07:53:10;3.90;99.90
23267;DHT22;11802;53.160;8.214;2023-11-18T07:55:36;3.90;99.90
23267;DHT22;11802;53.160;8.214;2023-11-18T07:58:11;3.90;99.90
23267;DHT22;11802;53.160;8.214;2023-11-18T08:00:43;3.90;99.90
23267;DHT22;11802;53.160;8.214;2023-11-18T08:03:11;3.90;99.90
23267;DHT22;11802;53.160;8.214;2023-11-18T08:05:41;4.00;99.90
23267;DHT22;11802;53.160;8.214;2023-11-18T08:08:07;4.10;99.90
23267;DHT22;11802;53.160;8.214;2023-11-18T08:10:36;4.10;99.90
23267;DHT22;11802;53.160;8.214;2023-11-18T08:13:05;4.10;99.90
23267;DHT22;11802;53.160;8.214;2023-11-18T08:15:32;4.10;99.90
23267;DHT22;11802;53.160;8.214;2023-11-18T08:17:57;4.10;99.90
23267;DHT22;11802;53.160;8.214;2023-11-18T08:20:23;4.20;99.90
23267;DHT22;11802;53.160;8.214;2023-11-18T08:22:51;4.20;99.90
23267;DHT22;11802;53.160;8.214;2023-11-18T08:25:16;4.20;99.90
23267;DHT22;11802;53.160;8.214;2023-11-18T08:27:43;4.30;99.90
23267;DHT22;11802;53.160;8.214;2023-11-18T08:30:09;4.40;99.90
23267;DHT22;11802;53.160;8.214;2023-11-18T08:32:41;4.40;99.90
23267;DHT22;11802;53.160;8.214;2023-11-18T08:35:09;4.50;99.90
23267;DHT22;11802;53.160;8.214;2023-11-18T08:37:38;4.60;99.90
23267;DHT22;11802;53.160;8.214;2023-11-18T08:40:05;4.60;99.90
23267;DHT22;11802;53.160;8.214;2023-11-18T08:42:41;4.80;99.90
23267;DHT22;11802;53.160;8.214;2023-11-18T08:45:14;4.90;99.90
23267;DHT22;11802;53.160;8.214;2023-11-18T08:47:42;5.00;99.90
23267;DHT22;11802;53.160;8.214;2023-11-18T08:50:08;5.00;99.90
23267;DHT22;11802;53.160;8.214;2023-11-18T08:52:37;5.00;99.90
23267;DHT22;11802;53.160;8.214;2023-11-18T08:55:08;5.10;99.90
23267;DHT22;11802;53.160;8.214;2023-11-18T08:57:45;5.10;99.90
23267;DHT22;11802;53.160;8.214;2023-11-18T09:00:36;5.10;99.90
23267;DHT22;11802;53.160;8.214;2023-11-18T09:03:08;5.20;99.90
23267;DHT22;11802;53.160;8.214;2023-11-18T09:05:33;5.30;99.90
23267;DHT22;11802;53.160;8.214;2023-11-18T09:08:03;5.40;99.90
23267;DHT22;11802;53.160;8.214;2023-11-18T09:10:31;5.60;99.90
23267;DHT22;11802;53.160;8.214;2023-11-18T09:12:56;5.60;99.90
23267;DHT22;11802;53.160;8.214;2023-11-18T09:15:22;5.60;99.90
23267;DHT22;11802;53.160;8.214;2023-11-18T09:17:48;5.70;99.90
23267;DHT22;11802;53.160;8.214;2023-11-18T09:20:14;5.70;99.90
23267;DHT22;11802;53.160;8.214;2023-11-18T09:22:46;5.70;99.90
23267;DHT22;11802;53.160;8.214;2023-11-18T09:25:11;5.80;99.90
23267;DHT22;11802;53.160;8.214;2023-11-18T09:27:37;5.90;99.90
23267;DHT22;11802;53.160;8.214;2023-11-18T09:30:05;5.80;99.90
23267;DHT22;11802;53.160;8.214;2023-11-18T09:32:41;5.80;99.90
23267;DHT22;11802;53.160;8.214;2023-11-18T09:35:08;5.90;99.90
23267;DHT22;11802;53.160;8.214;2023-11-18T09:37:35;5.90;99.90
23267;DHT22;11802;53.160;8.214;2023-11-18T09:40:03;5.90;99.90
23267;DHT22;11802;53.160;8.214;2023-11-18T09:42:37;5.90;99.90
23267;DHT22;11802;53.160;8.214;2023-11-18T09:45:05;5.70;99.90
23267;DHT22;11802;53.160;8.214;2023-11-18T09:47:34;5.70;99.90
23267;DHT22;11802;53.160;8.214;2023-11-18T09:50:02;5.60;99.90
23267;DHT22;11802;53.160;8.214;2023-11-18T09:52:34;5.50;99.90
23267;DHT22;11802;53.160;8.214;2023-11-18T09:55:10;5.50;99.90
23267;DHT22;11802;53.160;8.214;2023-11-18T09:57:43;5.40;99.90
23267;DHT22;11802;53.160;8.214;2023-11-18T10:00:11;5.40;99.90
23267;DHT22;11802;53.160;8.214;2023-11-18T10:02:52;5.40;99.90
23267;DHT22;11802;53.160;8.214;2023-11-18T10:05:21;5.30;99.90
23267;DHT22;11802;53.160;8.214;2023-11-18T10:07:48;5.40;99.90
23267;DHT22;11802;53.160;8.214;2023-11-18T10:10:14;5.40;99.90
23267;DHT22;11802;53.160;8.214;2023-11-18T10:12:45;5.50;99.90
23267;DHT22;11802;53.160;8.214;2023-11-18T10:15:14;5.60;99.90
23267;DHT22;11802;53.160;8.214;2023-11-18T10:17:44;5.60;99.90
23267;DHT22;11802;53.160;8.214;2023-11-18T10:20:46;5.70;99.90
23267;DHT22;11802;53.160;8.214;2023-11-18T10:23:14;5.70;99.90
23267;DHT22;11802;53.160;8.214;2023-11-18T10:25:49;5.80;99.90
23267;DHT22;11802;53.160;8.214;2023-11-18T10:28:34;5.90;99.90
23267;DHT22;11802;53.160;8.214;2023-11-18T10:31:06;6.00;99.90
23267;DHT22;11802;53.160;8.214;2023-11-18T10:33:38;6.00;99.90
23267;DHT22;11802;53.160;8.214;2023-11-18T10:36:17;6.00;99.90
23267;DHT22;11802;53.160;8.214;2023-11-18T10:38:48;6.10;99.90
23267;DHT22;11802;53.160;8.214;2023-11-18T10:41:15;6.10;99.90
23267;DHT22;11802;53.160;8.214;2023-11-18T10:43:45;6.30;99.90
23267;DHT22;11802;53.160;8.214;2023-11-18T10:46:12;6.40;99.90
23267;DHT22;11802;53.160;8.214;2023-11-18T10:48:48;6.60;99.90
23267;DHT22;11802;53.160;8.214;2023-11-18T10:51:18;6.60;99.90
23267;DHT22;11802;53.160;8.214;2023-11-18T10:53:48;6.70;99.90
23267;DHT22;11802;53.160;8.214;2023-11-18T10:56:29;6.60;99.90
23267;DHT22;11802;53.160;8.214;2023-11-18T10:58:56;6.60;99.90
23267;DHT22;11802;53.160;8.214;2023-11-18T11:01:33;6.60;99.90
23267;DHT22;11802;53.160;8.214;2023-11-18T11:03:59;6.60;99.90
23267;DHT22;11802;53.160;8.214;2023-11-18T11:06:26;6.60;99.90
23267;DHT22;11802;53.160;8.214;2023-11-18T11:08:56;6.50;99.90
23267;DHT22;11802;53.160;8.214;2023-11-18T11:11:25;6.50;99.90
23267;DHT22;11802;53.160;8.214;2023-11-18T11:14:00;6.50;99.90
23267;DHT22;11802;53.160;8.214;2023-11-18T11:16:37;6.40;99.90
23267;DHT22;11802;53.160;8.214;2023-11-18T11:19:07;6.40;99.90
23267;DHT22;11802;53.160;8.214;2023-11-18T11:21:43;6.40;99.90
23267;DHT22;11802;53.160;8.214;2023-11-18T11:24:20;6.40;99.90
23267;DHT22;11802;53.160;8.214;2023-11-18T11:27:21;6.40;99.90
23267;DHT22;11802;53.160;8.214;2023-11-18T11:30:01;6.40;99.90
23267;DHT22;11802;53.160;8.214;2023-11-18T11:32:43;6.50;99.90
23267;DHT22;11802;53.160;8.214;2023-11-18T11:35:18;6.50;99.90
23267;DHT22;11802;53.160;8.214;2023-11-18T11:37:47;6.60;99.90
23267;DHT22;11802;53.160;8.214;2023-11-18T11:40:14;6.60;99.90
23267;DHT22;11802;53.160;8.214;2023-11-18T11:42:48;6.60;99.90
23267;DHT22;11802;53.160;8.214;2023-11-18T11:45:23;6.60;99.90
23267;DHT22;11802;53.160;8.214;2023-11-18T11:48:01;6.70;99.90
23267;DHT22;11802;53.160;8.214;2023-11-18T11:53:35;6.50;99.90
23267;DHT22;11802;53.160;8.214;2023-11-18T11:56:05;6.50;99.90
23267;DHT22;11802;53.160;8.214;2023-11-18T11:58:34;6.50;99.90
23267;DHT22;11802;53.160;8.214;2023-11-18T12:01:35;6.50;99.90
23267;DHT22;11802;53.160;8.214;2023-11-18T12:04:08;6.50;99.90
23267;DHT22;11802;53.160;8.214;2023-11-18T12:06:42;6.40;99.90
23267;DHT22;11802;53.160;8.214;2023-11-18T12:09:09;6.40;99.90
23267;DHT22;11802;53.160;8.214;2023-11-18T12:11:38;6.40;99.90
23267;DHT22;11802;53.160;8.214;2023-11-18T12:14:11;6.40;99.90
23267;DHT22;11802;53.160;8.214;2023-11-18T12:17:08;6.30;99.90
23267;DHT22;11802;53.160;8.214;2023-11-18T12:19:40;6.20;99.90
23267;DHT22;11802;53.160;8.214;2023-11-18T12:22:22;6.20;99.90
23267;DHT22;11802;53.160;8.214;2023-11-18T12:32:58;6.20;99.90
23267;DHT22;11802;53.160;8.214;2023-11-18T12:41:34;6.20;99.90
23267;DHT22;11802;53.160;8.214;2023-11-18T12:44:31;6.20;99.90
23267;DHT22;11802;53.160;8.214;2023-11-18T12:47:04;6.20;99.90
23267;DHT22;11802;53.160;8.214;2023-11-18T12:49:47;6.20;99.90
23267;DHT22;11802;53.160;8.214;2023-11-18T12:52:20;6.10;99.90
23267;DHT22;11802;53.160;8.214;2023-11-18T12:54:47;6.10;99.90
23267;DHT22;11802;53.160;8.214;2023-11-18T12:57:17;6.10;99.90
23267;DHT22;11802;53.160;8.214;2023-11-18T12:59:42;6.10;99.90
23267;DHT22;11802;53.160;8.214;2023-11-18T13:02:11;6.10;99.90
23267;DHT22;11802;53.160;8.214;2023-11-18T13:04:45;6.10;99.90
23267;DHT22;11802;53.160;8.214;2023-11-18T13:07:16;6.10;99.90
23267;DHT22;11802;53.160;8.214;2023-11-18T13:09:46;6.10;99.90
23267;DHT22;11802;53.160;8.214;2023-11-18T13:12:14;6.00;99.90
23267;DHT22;11802;53.160;8.214;2023-11-18T13:14:45;6.00;99.90
23267;DHT22;11802;53.160;8.214;2023-11-18T13:17:13;6.00;99.90
23267;DHT22;11802;53.160;8.214;2023-11-18T13:19:41;6.00;99.90
23267;DHT22;11802;53.160;8.214;2023-11-18T13:22:09;6.00;99.90
23267;DHT22;11802;53.160;8.214;2023-11-18T13:24:36;6.00;99.90
23267;DHT22;11802;53.160;8.214;2023-11-18T13:27:02;6.00;99.90
23267;DHT22;11802;53.160;8.214;2023-11-18T13:29:32;6.00;99.90
23267;DHT22;11802;53.160;8.214;2023-11-18T13:32:00;6.10;99.90
23267;DHT22;11802;53.160;8.214;2023-11-18T13:34:30;6.10;99.90
23267;DHT22;11802;53.160;8.214;2023-11-18T13:36:57;6.10;99.90
23267;DHT22;11802;53.160;8.214;2023-11-18T13:39:23;6.10;99.90
23267;DHT22;11802;53.160;8.214;2023-11-18T13:41:52;6.10;99.90
23267;DHT22;11802;53.160;8.214;2023-11-18T13:44:37;6.20;99.90
23267;DHT22;11802;53.160;8.214;2023-11-18T13:47:10;6.10;99.90
23267;DHT22;11802;53.160;8.214;2023-11-18T13:49:38;6.10;99.90
23267;DHT22;11802;53.160;8.214;2023-11-18T13:52:07;6.20;99.90
23267;DHT22;11802;53.160;8.214;2023-11-18T13:54:38;6.20;99.90
23267;DHT22;11802;53.160;8.214;2023-11-18T13:57:04;6.20;99.90
23267;DHT22;11802;53.160;8.214;2023-11-18T13:59:31;6.20;99.90
23267;DHT22;11802;53.160;8.214;2023-11-18T14:01:58;6.20;99.90
23267;DHT22;11802;53.160;8.214;2023-11-18T14:04:27;6.30;99.90
23267;DHT22;11802;53.160;8.214;2023-11-18T14:06:57;6.30;99.90
23267;DHT22;11802;53.160;8.214;2023-11-18T14:09:22;6.30;99.90
23267;DHT22;11802;53.160;8.214;2023-11-18T14:11:51;6.30;99.90
23267;DHT22;11802;53.160;8.214;2023-11-18T14:14:17;6.30;99.90
23267;DHT22;11802;53.160;8.214;2023-11-18T14:16:44;6.30;99.90
23267;DHT22;11802;53.160;8.214;2023-11-18T14:19:09;6.30;99.90
23267;DHT22;11802;53.160;8.214;2023-11-18T14:21:36;6.30;99.90
23267;DHT22;11802;53.160;8.214;2023-11-18T14:24:02;6.20;99.90
23267;DHT22;11802;53.160;8.214;2023-11-18T14:26:28;6.20;99.90
23267;DHT22;11802;53.160;8.214;2023-11-18T14:28:56;6.20;99.90
23267;DHT22;11802;53.160;8.214;2023-11-18T14:31:21;6.20;99.90
23267;DHT22;11802;53.160;8.214;2023-11-18T14:33:50;6.10;99.90
23267;DHT22;11802;53.160;8.214;2023-11-18T14:36:19;6.20;99.90
23267;DHT22;11802;53.160;8.214;2023-11-18T14:38:46;6.20;99.90
23267;DHT22;11802;53.160;8.214;2023-11-18T14:41:12;6.20;99.90
23267;DHT22;11802;53.160;8.214;2023-11-18T14:43:38;6.10;99.90
23267;DHT22;11802;53.160;8.214;2023-11-18T14:46:03;6.10;99.90
23267;DHT22;11802;53.160;8.214;2023-11-18T14:48:29;6.10;99.90
23267;DHT22;11802;53.160;8.214;2023-11-18T14:50:56;6.10;99.90
23267;DHT22;11802;53.160;8.214;2023-11-18T14:53:22;6.10;99.90
23267;DHT22;11802;53.160;8.214;2023-11-18T14:55:48;6.10;99.90
23267;DHT22;11802;53.160;8.214;2023-11-18T14:58:13;6.10;99.90
23267;DHT22;11802;53.160;8.214;2023-11-18T15:00:39;6.10;99.90
23267;DHT22;11802;53.160;8.214;2023-11-18T15:03:05;6.10;99.90
23267;DHT22;11802;53.160;8.214;2023-11-18T15:05:31;6.10;99.90
23267;DHT22;11802;53.160;8.214;2023-11-18T15:07:57;6.00;99.90
23267;DHT22;11802;53.160;8.214;2023-11-18T15:10:27;6.10;99.90
23267;DHT22;11802;53.160;8.214;2023-11-18T15:12:56;6.00;99.90
23267;DHT22;11802;53.160;8.214;2023-11-18T15:15:30;6.00;99.90
23267;DHT22;11802;53.160;8.214;2023-11-18T15:18:03;6.00;99.90
23267;DHT22;11802;53.160;8.214;2023-11-18T15:20:31;6.00;99.90
23267;DHT22;11802;53.160;8.214;2023-11-18T15:22:57;6.00;99.90
23267;DHT22;11802;53.160;8.214;2023-11-18T15:25:22;6.00;99.90
23267;DHT22;11802;53.160;8.214;2023-11-18T15:27:48;6.00;99.90
23267;DHT22;11802;53.160;8.214;2023-11-18T15:30:15;6.00;99.90
23267;DHT22;11802;53.160;8.214;2023-11-18T15:32:42;6.00;99.90
23267;DHT22;11802;53.160;8.214;2023-11-18T15:35:09;6.00;99.90
23267;DHT22;11802;53.160;8.214;2023-11-18T15:37:35;6.00;99.90
23267;DHT22;11802;53.160;8.214;2023-11-18T15:40:01;6.00;99.90
23267;DHT22;11802;53.160;8.214;2023-11-18T15:42:36;6.00;99.90
23267;DHT22;11802;53.160;8.214;2023-11-18T15:45:02;6.00;99.90
23267;DHT22;11802;53.160;8.214;2023-11-18T15:47:28;6.00;99.90
23267;DHT22;11802;53.160;8.214;2023-11-18T15:49:54;5.90;99.90
23267;DHT22;11802;53.160;8.214;2023-11-18T15:52:19;5.90;99.90
23267;DHT22;11802;53.160;8.214;2023-11-18T15:54:45;5.90;99.90
23267;DHT22;11802;53.160;8.214;2023-11-18T15:57:12;5.90;99.90
23267;DHT22;11802;53.160;8.214;2023-11-18T15:59:38;6.00;99.90
23267;DHT22;11802;53.160;8.214;2023-11-18T16:02:04;6.00;99.90
23267;DHT22;11802;53.160;8.214;2023-11-18T16:04:31;6.00;99.90
23267;DHT22;11802;53.160;8.214;2023-11-18T16:06:56;6.00;99.90
23267;DHT22;11802;53.160;8.214;2023-11-18T16:09:22;5.90;99.90
23267;DHT22;11802;53.160;8.214;2023-11-18T16:11:47;6.00;99.90
23267;DHT22;11802;53.160;8.214;2023-11-18T16:14:14;6.00;99.90